Providence, Rhode Island
Traffic Map
Current Weather Conditions
Providence, Rhode Island
Clear
Clear
30°
Feels Like: 31°
Wind Chill: 30° Ceiling: Unl
Heat Index: 31° Visibility: 10mi
Dew Point: 19° Wind: 16mph
Humidity: 53% Direction: 210° (SSW)
Pressure: 29.81in Gusts: 28mph
Raw Report DataKPVD 041951Z 21014G24KT 10SM CLR 30/19 A2981 RMK AO2 PK WND 21026/1924 SLP093 T03000194 $
Traffic Incident Summary
Active as of:
Severity:
Category:
InformationThere was an issue retrieving the traffic information for this location. Please try a different location or try again shortly.
Advertisements
Track Severe Weather on mobile